Parker, AZ

2:02 AM MST on October 01, 2014 (GMT -0700)
Black Meadow Landing | Change Station
CLOSE
Current Station
Personal Weather Station
Location: Parker Dam, CA
Elevation: 472 ft
Nearby Weather Stations

Elev 472 ft 34.35 °N, 114.20 °W | Updated 2 minutes ago

Clear
Clear
81.1 °F
Feels Like 80 °F
N
1.8
Wind Variable Wind from SE
Gusts 1.8 mph

Today
High -- | Low -- °F
--% Chance of Precip.
Yesterday
High -- | Low -- °F
Precip. -- in
6:31 AM 6:21 PM
Waxing Crescent, 45% visible
Pressure 29.67 in
Visibility 10.0 miles
Clouds Clear
Heat Index 80 °F
Dew Point 52 °F
Humidity 36%
Rainfall 0.00 in
Snow Depth Not available.
UV 0 out of 12
Pollen 7.70 out of 12
Air Quality Not available.
Flu Activity Not available.
METAR KBLH 010752Z AUTO 00000KT 10SM CLR 24/06 A2969 RMK AO2 SLP047 T02390056 403390172

More Conditions Fewer Conditions

Pressure 29.67 in
Visibility 10.0 miles
Clouds Clear
Heat Index 80 °F
Dew Point 52 °F
Humidity 36%
Rainfall 0.00 in
Snow Depth Not available.
UV 0 out of 12
Pollen 7.70 out of 12
Air Quality Not available.
Flu Activity Not available.
METAR KBLH 010752Z AUTO 00000KT 10SM CLR 24/06 A2969 RMK AO2 SLP047 T02390056 403390172

More Conditions Fewer Conditions

10-Day Weather Forecast

Almanac

Astronomy

Oct. 01, 2014 Rise Set
Actual Time 6:31 AM MST 6:21 PM MST
Civil Twilight 6:06 AM MST 6:46 PM MST
Nautical Twilight 5:37 AM MST 7:15 PM MST
Astronomical Twilight 5:08 AM MST 7:44 PM MST
Moon 1:24 PM MST No Moon Set
Length of Visible Light 12h 39m
Length of Day
11h 49m
Tomorrow will be 2m 6s shorter.
Waxing Crescent, 45% of the Moon is Illuminated
Today
Waxing Crescent
Oct 1
First Quarter
Oct 8
Full
Oct 15
Last Quarter
Oct 23
New

Today's Extremes

State Highs State Lows

Community

WunderPhotos

Upload Photos

1,757,902 photos uploaded!

Nearby

Snow Depth

Station Depth Elevation
Workman Creek 2 in 6900 ft
Hannagan Meadows 0 in 9020 ft
White Horse Lake 1 in 7180 ft
Wildcat 0 in 7850 ft
Snowslide Canyon 1 in 9730 ft

Earthquake Activity

City Distance Mag. Time & Date
No recent earthquake activity has been reported nearby.
Minimum magnitude displayed is 2.5.

Coastal Water Temperatures

Place Temperature
No Stations Reporting

Nearby Weather Stations